Time;durP1;ratioP1;P1;durP2;ratioP2;P2;SDS_P1;SDS_P2;PMS_P1;PMS_P2;Temp;Humidity;BMP_temperature;BMP_pressure;BME280_temperature;BME280_humidity;BME280_pressure;Samples;Min_cycle;Max_cycle;Signal;HPM_P1;HPM_P2
2021/06/13 00:01:33;;;;;;;13.80;5.33;;;13.50;73.30;;;;;;4993112;28;20207;-89
2021/06/13 00:03:59;;;;;;;14.53;4.20;;;13.40;73.10;;;;;;4993047;28;20251;-89
2021/06/13 00:06:25;;;;;;;11.90;4.10;;;13.40;73.30;;;;;;5013554;28;20206;-89
2021/06/13 00:08:50;;;;;;;11.10;3.90;;;13.30;73.70;;;;;;4996291;28;20318;-90
2021/06/13 00:11:17;;;;;;;13.57;4.57;;;13.30;73.70;;;;;;4996461;28;20178;-88
2021/06/13 00:13:43;;;;;;;14.20;4.40;;;13.30;74.40;;;;;;4996404;28;20178;-88
2021/06/13 00:16:10;;;;;;;13.63;4.60;;;13.40;73.90;;;;;;4996340;28;20180;-88
2021/06/13 00:18:36;;;;;;;16.37;5.30;;;13.40;73.70;;;;;;5013957;28;20224;-88
2021/06/13 00:21:03;;;;;;;17.23;4.87;;;13.50;74.00;;;;;;4996308;28;20177;-89
2021/06/13 00:23:29;;;;;;;20.07;4.00;;;13.50;74.30;;;;;;4996336;28;20177;-89
2021/06/13 00:25:55;;;;;;;15.23;4.53;;;13.50;73.40;;;;;;4996222;28;20178;-88
2021/06/13 00:28:20;;;;;;;12.40;4.03;;;13.50;73.00;;;;;;5013648;28;20607;-88
2021/06/13 00:30:46;;;;;;;18.70;4.43;;;13.60;73.00;;;;;;4996087;28;20195;-89
2021/06/13 00:33:12;;;;;;;16.40;4.63;;;13.60;73.00;;;;;;4996018;28;20706;-88
2021/06/13 00:35:38;;;;;;;20.27;5.23;;;13.60;73.60;;;;;;4996323;28;20181;-88
2021/06/13 00:38:06;;;;;;;16.13;4.50;;;13.60;73.60;;;;;;5013468;28;20272;-89
2021/06/13 00:40:32;;;;;;;17.10;4.53;;;13.60;73.70;;;;;;4996015;28;20178;-91
2021/06/13 00:42:58;;;;;;;11.53;4.00;;;13.70;73.90;;;;;;4996549;28;20181;-91
2021/06/13 00:45:26;;;;;;;17.23;4.87;;;13.70;74.20;;;;;;5013768;28;20182;-92
2021/06/13 00:47:51;;;;;;;17.07;4.20;;;13.70;74.60;;;;;;5013339;28;20297;-91
2021/06/13 00:50:39;;;;;;;14.13;4.30;;;13.70;74.40;;;;;;5013508;28;20609;-90
2021/06/13 00:53:06;;;;;;;20.17;5.33;;;13.50;75.00;;;;;;4995820;28;20629;-90
2021/06/13 00:55:34;;;;;;;11.70;4.47;;;13.50;75.40;;;;;;4995818;28;20189;-91
2021/06/13 00:58:04;;;;;;;16.53;4.60;;;13.40;75.10;;;;;;4995781;28;20201;-91
2021/06/13 01:00:29;;;;;;;19.93;5.13;;;13.40;75.00;;;;;;5013575;28;20297;-90
2021/06/13 01:02:56;;;;;;;18.90;4.60;;;13.50;74.60;;;;;;4995919;28;20189;-90
2021/06/13 01:05:22;;;;;;;10.03;4.10;;;13.40;75.00;;;;;;4995638;28;20185;-89
2021/06/13 01:07:47;;;;;;;19.80;5.50;;;13.40;75.30;;;;;;4995405;28;20262;-90
2021/06/13 01:10:41;;;;;;;11.10;4.97;;;13.40;75.10;;;;;;4995423;28;20178;-89
2021/06/13 01:13:35;;;;;;;18.17;4.70;;;13.30;75.90;;;;;;4996014;28;20177;-89
2021/06/13 01:16:19;;;;;;;10.27;4.33;;;13.40;75.20;;;;;;5013379;28;20162;-88
2021/06/13 01:18:49;;;;;;;14.77;4.63;;;13.50;74.20;;;;;;4995848;28;20193;-89
2021/06/13 01:21:21;;;;;;;13.77;4.40;;;13.60;73.30;;;;;;5013130;28;20168;-88
2021/06/13 01:24:11;;;;;;;15.03;4.67;;;13.60;73.10;;;;;;4995627;28;20557;-89
2021/06/13 01:26:49;;;;;;;14.77;4.17;;;13.60;72.70;;;;;;4995612;28;20227;-88
2021/06/13 01:29:28;;;;;;;15.63;4.30;;;13.60;72.40;;;;;;4995431;28;20194;-90
2021/06/13 01:31:56;;;;;;;18.50;4.57;;;13.60;72.50;;;;;;5012854;28;20584;-89
2021/06/13 01:34:37;;;;;;;14.80;4.63;;;13.60;71.70;;;;;;5012745;28;20205;-89
2021/06/13 01:37:06;;;;;;;19.60;4.63;;;13.50;72.20;;;;;;4995070;28;20197;-89
2021/06/13 01:39:33;;;;;;;11.87;4.23;;;13.50;72.30;;;;;;4995051;28;20217;-89
2021/06/13 01:42:00;;;;;;;13.97;4.43;;;13.60;72.20;;;;;;4994995;28;20620;-89
2021/06/13 01:44:27;;;;;;;13.20;4.33;;;13.50;72.30;;;;;;4994963;28;20188;-89
2021/06/13 01:46:54;;;;;;;18.93;4.57;;;13.60;72.30;;;;;;4994879;28;20680;-89
2021/06/13 01:49:21;;;;;;;18.23;4.37;;;13.60;72.20;;;;;;5012701;28;20166;-89
2021/06/13 01:51:48;;;;;;;14.40;4.47;;;13.50;72.60;;;;;;5012304;28;20177;-89
2021/06/13 01:54:15;;;;;;;14.43;3.90;;;13.50;72.10;;;;;;4994882;28;20254;-88
2021/06/13 01:56:50;;;;;;;11.50;3.63;;;13.50;72.50;;;;;;4994718;28;20560;-88
2021/06/13 01:59:18;;;;;;;10.10;3.73;;;13.50;72.00;;;;;;4994848;28;20208;-89
2021/06/13 02:01:46;;;;;;;13.30;4.07;;;13.50;71.20;;;;;;4994689;28;20185;-89
2021/06/13 02:04:13;;;;;;;16.57;3.60;;;13.60;72.10;;;;;;4994648;28;20185;-89
2021/06/13 02:06:47;;;;;;;11.67;3.83;;;13.50;72.00;;;;;;4994409;28;20296;-89
2021/06/13 02:09:14;;;;;;;15.07;3.77;;;13.60;72.30;;;;;;4994604;28;20173;-90
2021/06/13 02:11:44;;;;;;;10.17;3.50;;;13.50;72.30;;;;;;5012093;28;20270;-89
2021/06/13 02:14:11;;;;;;;17.77;4.43;;;13.50;72.10;;;;;;4994541;28;20173;-89
2021/06/13 02:16:40;;;;;;;13.00;4.53;;;13.40;72.50;;;;;;5012181;28;20200;-90
2021/06/13 02:19:06;;;;;;;15.33;4.90;;;13.40;71.80;;;;;;5012435;28;20181;-89
2021/06/13 02:21:33;;;;;;;13.73;4.40;;;13.50;72.20;;;;;;5012023;28;20188;-89
2021/06/13 02:23:58;;;;;;;16.97;4.30;;;13.50;72.70;;;;;;4994430;28;20185;-88
2021/06/13 02:26:26;;;;;;;13.77;4.40;;;13.50;72.90;;;;;;5011711;28;20206;-89
2021/06/13 02:28:55;;;;;;;13.40;4.33;;;13.50;73.00;;;;;;4994040;28;20683;-89
2021/06/13 02:31:25;;;;;;;10.57;3.13;;;13.50;73.00;;;;;;4994276;28;20269;-89
2021/06/13 02:33:53;;;;;;;17.10;4.20;;;13.50;73.30;;;;;;4994463;28;20185;-88
2021/06/13 02:36:19;;;;;;;12.17;4.40;;;13.50;73.60;;;;;;4994530;28;20697;-88
2021/06/13 02:38:45;;;;;;;18.70;4.17;;;13.40;73.50;;;;;;4994460;28;20650;-88
2021/06/13 02:41:11;;;;;;;14.47;4.30;;;13.40;73.10;;;;;;4994470;28;20192;-89
2021/06/13 02:43:37;;;;;;;13.10;3.97;;;13.50;72.90;;;;;;4994294;28;20216;-89
2021/06/13 02:46:02;;;;;;;14.53;4.67;;;13.50;73.00;;;;;;4993902;28;20724;-89
2021/06/13 02:48:28;;;;;;;15.43;4.43;;;13.50;73.70;;;;;;4994080;28;20201;-88
2021/06/13 02:50:56;;;;;;;17.97;4.60;;;13.50;73.50;;;;;;5011505;28;20679;-88
2021/06/13 02:53:43;;;;;;;17.60;4.90;;;13.50;73.30;;;;;;4993944;28;20177;-89
2021/06/13 02:56:39;;;;;;;8.90;3.50;;;13.60;73.00;;;;;;4994279;28;20177;-89
2021/06/13 02:59:47;;;;;;;18.03;4.80;;;13.60;72.30;;;;;;4993909;28;20182;-89
2021/06/13 03:02:15;;;;;;;13.00;4.10;;;13.50;72.70;;;;;;4994100;28;20177;-89
2021/06/13 03:04:42;;;;;;;15.43;5.03;;;13.50;72.40;;;;;;5011350;28;20181;-89
2021/06/13 03:07:10;;;;;;;19.23;4.40;;;13.50;72.80;;;;;;4993738;28;20205;-89
2021/06/13 03:09:36;;;;;;;14.43;3.97;;;13.60;73.40;;;;;;5011250;28;20679;-90
2021/06/13 03:12:02;;;;;;;16.43;4.37;;;13.60;72.90;;;;;;5011147;28;20180;-88
2021/06/13 03:14:31;;;;;;;16.07;4.03;;;13.60;72.40;;;;;;5011249;28;20211;-89
2021/06/13 03:16:58;;;;;;;16.80;4.70;;;13.60;73.30;;;;;;4993715;28;20189;-88
2021/06/13 03:19:26;;;;;;;12.70;3.80;;;13.60;73.10;;;;;;5011185;28;20174;-89
2021/06/13 03:21:52;;;;;;;20.80;4.93;;;13.70;73.20;;;;;;4993687;28;20671;-89
2021/06/13 03:24:21;;;;;;;12.20;3.77;;;13.60;73.00;;;;;;4993721;28;20562;-88
2021/06/13 03:26:49;;;;;;;17.63;4.43;;;13.60;73.10;;;;;;4993554;28;20580;-89
2021/06/13 03:29:17;;;;;;;13.87;4.47;;;13.60;73.60;;;;;;5010839;28;20189;-90
2021/06/13 03:31:44;;;;;;;14.93;4.63;;;13.60;73.60;;;;;;5011005;28;20254;-88
2021/06/13 03:34:11;;;;;;;14.90;4.30;;;13.60;73.70;;;;;;4993907;28;20181;-89
2021/06/13 03:36:38;;;;;;;18.50;3.87;;;13.70;73.40;;;;;;4993790;28;20548;-89
2021/06/13 03:39:04;;;;;;;16.10;3.73;;;13.60;73.60;;;;;;4993129;28;20181;-89
2021/06/13 03:41:31;;;;;;;16.77;4.60;;;13.70;74.00;;;;;;4993274;28;20186;-89
2021/06/13 03:43:57;;;;;;;17.30;5.23;;;13.70;74.20;;;;;;4993118;28;20641;-89
2021/06/13 03:46:23;;;;;;;19.93;4.80;;;13.70;73.60;;;;;;4993393;28;20278;-89
2021/06/13 03:48:50;;;;;;;10.80;4.40;;;13.70;73.90;;;;;;4993676;28;20193;-89
2021/06/13 03:51:19;;;;;;;13.57;4.47;;;13.70;74.10;;;;;;5010745;28;20177;-89
2021/06/13 03:53:48;;;;;;;21.13;5.77;;;13.70;74.80;;;;;;4993195;28;20230;-89
2021/06/13 03:56:17;;;;;;;14.50;4.40;;;13.70;74.60;;;;;;5010752;28;20576;-89
2021/06/13 03:58:44;;;;;;;16.60;4.80;;;13.70;74.80;;;;;;4993019;28;20201;-90
2021/06/13 04:01:17;;;;;;;13.43;4.50;;;13.70;74.60;;;;;;4993102;28;20542;-89
2021/06/13 04:03:47;;;;;;;14.10;4.33;;;13.70;74.40;;;;;;4993109;28;20638;-89
2021/06/13 04:06:13;;;;;;;20.43;5.27;;;13.80;74.70;;;;;;4992878;28;20216;-88
2021/06/13 04:08:40;;;;;;;14.97;4.73;;;13.70;74.60;;;;;;5010423;28;20201;-89
2021/06/13 04:11:08;;;;;;;17.53;4.63;;;13.80;74.70;;;;;;4993089;28;20231;-89
2021/06/13 04:13:35;;;;;;;15.30;4.70;;;13.70;74.20;;;;;;4993069;28;20196;-89
2021/06/13 04:16:06;;;;;;;17.90;5.03;;;13.70;73.40;;;;;;4993139;28;20182;-90
2021/06/13 04:18:37;;;;;;;13.07;5.00;;;13.70;72.70;;;;;;4992831;28;20205;-89
2021/06/13 04:21:08;;;;;;;16.87;4.77;;;13.70;72.70;;;;;;5010841;28;20166;-88
2021/06/13 04:23:34;;;;;;;12.47;4.23;;;13.80;72.30;;;;;;4993205;28;20223;-89
2021/06/13 04:26:00;;;;;;;16.70;4.53;;;13.80;72.50;;;;;;5010747;28;20177;-89
2021/06/13 04:28:29;;;;;;;18.63;5.67;;;13.80;71.90;;;;;;4992787;28;20217;-88
2021/06/13 04:31:03;;;;;;;14.00;4.60;;;13.80;71.80;;;;;;5010342;28;20290;-90
2021/06/13 04:33:30;;;;;;;14.50;4.53;;;13.80;71.90;;;;;;4992754;28;20176;-89
2021/06/13 04:35:56;;;;;;;19.10;6.00;;;13.80;72.60;;;;;;4992720;28;20230;-89
2021/06/13 04:38:21;;;;;;;18.30;4.93;;;13.80;72.80;;;;;;4992629;28;20293;-88
2021/06/13 04:40:47;;;;;;;22.83;5.43;;;13.90;73.20;;;;;;4992524;28;20174;-90
2021/06/13 04:43:12;;;;;;;15.17;4.30;;;13.80;72.60;;;;;;4992685;28;20185;-88
2021/06/13 04:45:38;;;;;;;14.43;4.57;;;13.80;72.70;;;;;;4992829;28;20181;-88
2021/06/13 04:48:06;;;;;;;14.37;5.13;;;13.80;72.20;;;;;;4992675;28;20217;-88
2021/06/13 04:50:34;;;;;;;15.57;5.30;;;13.80;72.30;;;;;;5010369;28;20637;-88
2021/06/13 04:53:01;;;;;;;15.17;5.13;;;13.80;72.60;;;;;;4995061;28;20182;-88
2021/06/13 04:55:46;;;;;;;14.43;5.33;;;13.80;72.60;;;;;;4996322;28;20230;-88
2021/06/13 04:58:25;;;;;;;12.43;5.77;;;13.90;72.20;;;;;;4996114;28;20236;-89
2021/06/13 05:00:51;;;;;;;13.13;5.33;;;13.90;72.00;;;;;;5013509;28;20196;-88
2021/06/13 05:03:18;;;;;;;10.73;4.73;;;14.00;71.60;;;;;;4995839;28;20186;-89
2021/06/13 05:05:44;;;;;;;9.97;4.57;;;14.00;71.70;;;;;;4995850;28;20594;-89
2021/06/13 05:08:10;;;;;;;13.63;4.40;;;14.00;71.50;;;;;;4995615;28;20209;-88
2021/06/13 05:10:36;;;;;;;16.17;4.73;;;14.00;70.50;;;;;;5013389;28;20227;-87
2021/06/13 05:13:11;;;;;;;14.50;5.83;;;14.00;69.90;;;;;;4995782;28;20177;-89
2021/06/13 05:15:37;;;;;;;14.23;5.17;;;14.00;70.00;;;;;;4996059;28;20181;-87
2021/06/13 05:18:03;;;;;;;13.63;4.67;;;14.00;70.00;;;;;;4996011;28;20568;-89
2021/06/13 05:20:28;;;;;;;13.67;4.93;;;14.10;69.90;;;;;;4995354;28;20272;-89
2021/06/13 05:22:57;;;;;;;10.77;4.13;;;14.00;70.10;;;;;;4995449;28;20177;-89
2021/06/13 05:25:24;;;;;;;13.97;4.40;;;14.00;70.30;;;;;;4995474;28;20184;-89
2021/06/13 05:27:50;;;;;;;15.30;5.07;;;14.00;70.30;;;;;;5091833;23;20225;-88
2021/06/13 05:30:15;;;;;;;14.17;5.20;;;14.10;70.00;;;;;;5080861;28;20170;-88
2021/06/13 05:32:41;;;;;;;19.03;4.97;;;14.10;69.50;;;;;;5080650;28;20169;-88
2021/06/13 05:35:07;;;;;;;15.53;4.53;;;14.10;69.70;;;;;;5012537;28;20198;-88
2021/06/13 05:37:33;;;;;;;14.33;5.83;;;14.10;69.60;;;;;;5012448;28;20197;-88
2021/06/13 05:39:59;;;;;;;13.23;4.87;;;14.10;69.60;;;;;;5012488;28;20223;-88
2021/06/13 05:42:24;;;;;;;17.63;5.17;;;14.20;69.20;;;;;;5080289;28;20608;-88
2021/06/13 05:44:50;;;;;;;12.07;5.00;;;14.20;69.60;;;;;;5080329;28;20178;-88
2021/06/13 05:47:15;;;;;;;15.27;4.83;;;14.30;69.60;;;;;;5080198;28;20672;-87
2021/06/13 05:49:41;;;;;;;14.33;4.33;;;14.20;69.90;;;;;;5080172;28;20633;-88
2021/06/13 05:52:06;;;;;;;15.37;4.90;;;14.20;69.50;;;;;;5080100;28;20226;-88
2021/06/13 05:54:33;;;;;;;10.03;4.60;;;14.30;69.70;;;;;;5080065;28;20232;-87
2021/06/13 05:56:59;;;;;;;12.80;4.53;;;14.30;69.90;;;;;;5079953;28;20562;-88
2021/06/13 05:59:25;;;;;;;19.73;5.97;;;14.30;70.10;;;;;;5012494;28;20203;-88
2021/06/13 06:01:50;;;;;;;12.53;4.30;;;14.40;70.40;;;;;;5080163;28;20230;-88
2021/06/13 06:04:16;;;;;;;13.87;4.70;;;14.40;71.40;;;;;;5011651;28;20728;-88
2021/06/13 06:06:42;;;;;;;17.93;5.73;;;14.50;71.80;;;;;;5011960;28;20219;-88
2021/06/13 06:09:07;;;;;;;16.43;5.33;;;14.60;72.00;;;;;;5079795;28;20572;-88
2021/06/13 06:11:35;;;;;;;13.40;5.23;;;14.70;72.40;;;;;;5079720;28;20216;-88
2021/06/13 06:14:00;;;;;;;22.20;4.60;;;14.70;72.60;;;;;;5012516;28;20727;-88
2021/06/13 06:16:26;;;;;;;19.23;4.90;;;14.50;73.00;;;;;;5011914;28;20252;-88
2021/06/13 06:18:52;;;;;;;12.63;4.60;;;14.50;73.00;;;;;;5080176;28;20231;-88
2021/06/13 06:21:18;;;;;;;14.83;5.10;;;14.60;73.90;;;;;;5079538;28;20185;-88
2021/06/13 06:23:43;;;;;;;15.10;5.40;;;14.50;73.80;;;;;;5079710;28;20184;-88
2021/06/13 06:26:09;;;;;;;23.83;5.57;;;14.40;74.20;;;;;;5079441;28;20653;-88
2021/06/13 06:28:34;;;;;;;16.43;5.53;;;14.50;73.70;;;;;;5079159;28;20215;-88
2021/06/13 06:31:00;;;;;;;14.77;4.73;;;14.50;74.30;;;;;;5011743;28;20252;-88
2021/06/13 06:33:30;;;;;;;14.80;4.67;;;14.50;74.10;;;;;;5079751;28;20169;-88
2021/06/13 06:35:56;;;;;;;14.53;5.10;;;14.60;74.20;;;;;;5079449;28;20222;-88
2021/06/13 06:38:22;;;;;;;18.03;5.13;;;14.60;73.70;;;;;;5079331;28;20205;-88
2021/06/13 06:40:48;;;;;;;16.90;5.93;;;14.70;73.10;;;;;;5079383;28;20710;-88
2021/06/13 06:43:13;;;;;;;18.17;5.23;;;14.80;73.60;;;;;;5079584;28;20212;-88
2021/06/13 06:45:39;;;;;;;12.20;4.30;;;14.80;73.00;;;;;;5011694;28;20185;-88
2021/06/13 06:48:05;;;;;;;16.03;4.60;;;14.80;72.60;;;;;;5011557;28;20209;-88
2021/06/13 06:50:31;;;;;;;17.10;6.53;;;14.80;72.40;;;;;;5079117;28;20169;-88
2021/06/13 06:52:57;;;;;;;15.07;4.83;;;14.80;72.10;;;;;;5079939;28;20534;-88
2021/06/13 06:55:23;;;;;;;12.73;4.83;;;14.80;72.00;;;;;;5011503;28;20174;-88
2021/06/13 06:57:49;;;;;;;11.83;4.37;;;14.80;72.20;;;;;;5079406;28;20296;-88
2021/06/13 07:00:16;;;;;;;16.63;5.03;;;14.90;72.00;;;;;;5080445;28;20177;-89
2021/06/13 07:02:43;;;;;;;15.60;4.67;;;15.00;71.20;;;;;;5079537;28;20183;-88
2021/06/13 07:05:09;;;;;;;14.90;4.53;;;15.10;70.90;;;;;;5078927;28;20272;-88
2021/06/13 07:07:35;;;;;;;9.90;4.57;;;15.20;70.60;;;;;;5078746;28;20213;-89
2021/06/13 07:10:02;;;;;;;14.97;5.07;;;15.20;70.40;;;;;;5011123;28;20183;-89
2021/06/13 07:12:29;;;;;;;10.83;4.40;;;15.20;70.70;;;;;;5078732;28;20173;-88
2021/06/13 07:14:55;;;;;;;14.47;5.33;;;15.20;71.00;;;;;;5077994;28;20668;-89
2021/06/13 07:17:20;;;;;;;13.77;5.63;;;15.00;70.60;;;;;;5078862;28;20196;-88
2021/06/13 07:19:46;;;;;;;14.30;5.13;;;14.80;70.70;;;;;;5078610;28;20591;-89
2021/06/13 07:22:12;;;;;;;13.00;5.03;;;14.80;70.90;;;;;;5078500;28;20196;-88
2021/06/13 07:24:37;;;;;;;16.53;5.73;;;14.80;71.30;;;;;;5078752;28;20234;-88
2021/06/13 07:27:04;;;;;;;21.90;5.87;;;14.80;71.50;;;;;;5010771;28;20197;-89
2021/06/13 07:29:30;;;;;;;20.43;6.07;;;14.80;71.70;;;;;;5078605;28;20242;-88
2021/06/13 07:31:56;;;;;;;13.93;5.50;;;15.00;71.20;;;;;;5010811;28;20589;-88
2021/06/13 07:34:22;;;;;;;16.37;5.93;;;15.00;71.80;;;;;;5078601;28;20181;-88
2021/06/13 07:36:48;;;;;;;20.50;6.77;;;15.10;71.60;;;;;;5078954;28;20181;-88
2021/06/13 07:39:14;;;;;;;16.90;4.73;;;15.10;71.00;;;;;;5078534;28;20254;-88
2021/06/13 07:41:39;;;;;;;16.47;5.20;;;15.20;71.30;;;;;;5078414;28;20184;-88
2021/06/13 07:44:05;;;;;;;16.17;5.47;;;15.40;70.70;;;;;;5078307;28;20182;-88
2021/06/13 07:46:34;;;;;;;13.73;5.60;;;15.50;69.00;;;;;;5078846;28;20194;-88
2021/06/13 07:49:00;;;;;;;12.57;4.77;;;15.30;69.50;;;;;;5078498;28;20197;-88
2021/06/13 07:51:26;;;;;;;13.63;4.93;;;15.20;70.00;;;;;;5078519;28;20169;-89
2021/06/13 07:53:52;;;;;;;13.60;5.07;;;15.10;71.30;;;;;;5078249;28;20190;-88
2021/06/13 07:56:17;;;;;;;18.23;5.60;;;15.10;71.50;;;;;;5078084;28;20182;-89
2021/06/13 07:58:43;;;;;;;16.87;5.67;;;15.20;71.60;;;;;;5078221;28;20198;-88
2021/06/13 08:01:09;;;;;;;15.10;5.77;;;15.20;71.50;;;;;;5010744;28;20227;-88
2021/06/13 08:03:39;;;;;;;16.83;6.03;;;15.20;71.50;;;;;;5010533;28;20172;-88
2021/06/13 08:06:07;;;;;;;19.57;5.50;;;15.30;71.20;;;;;;5010616;28;20169;-88
2021/06/13 08:08:33;;;;;;;18.30;5.67;;;15.40;71.20;;;;;;5077945;28;20194;-88
2021/06/13 08:11:00;;;;;;;17.93;5.67;;;15.60;71.60;;;;;;5078230;28;20312;-88
2021/06/13 08:13:26;;;;;;;24.33;6.00;;;15.70;70.80;;;;;;5078021;28;20174;-88
2021/06/13 08:15:52;;;;;;;12.00;5.17;;;15.60;70.70;;;;;;5078079;28;20176;-88
2021/06/13 08:18:18;;;;;;;12.30;4.70;;;15.50;70.30;;;;;;5078097;28;20238;-88
2021/06/13 08:20:44;;;;;;;16.67;5.83;;;15.50;69.90;;;;;;5077884;28;20174;-88
2021/06/13 08:23:10;;;;;;;20.10;6.37;;;15.50;70.90;;;;;;5010232;28;20170;-88
2021/06/13 08:25:36;;;;;;;15.93;5.07;;;15.50;70.30;;;;;;5078404;28;20649;-88
2021/06/13 08:28:02;;;;;;;15.10;6.17;;;15.60;69.50;;;;;;5081475;28;20221;-88
2021/06/13 08:30:28;;;;;;;24.40;6.47;;;15.60;69.00;;;;;;5082392;28;20207;-88
2021/06/13 08:32:54;;;;;;;21.33;6.23;;;15.70;70.00;;;;;;5081653;28;20185;-88
2021/06/13 08:35:20;;;;;;;13.17;5.70;;;15.80;68.90;;;;;;5082161;28;20177;-88
2021/06/13 08:37:46;;;;;;;13.67;5.37;;;15.90;68.60;;;;;;5081701;28;20613;-89
2021/06/13 08:40:13;;;;;;;19.03;5.47;;;15.80;67.70;;;;;;5081464;28;20268;-88
2021/06/13 08:42:41;;;;;;;13.83;5.67;;;15.70;67.60;;;;;;5081510;28;20700;-89
2021/06/13 08:45:09;;;;;;;15.37;6.10;;;15.70;68.60;;;;;;5013344;28;20176;-89
2021/06/13 08:47:35;;;;;;;11.60;4.93;;;15.90;66.80;;;;;;5013242;28;20205;-88
2021/06/13 08:50:03;;;;;;;17.73;5.83;;;15.70;66.30;;;;;;5081777;28;20231;-88
2021/06/13 08:52:28;;;;;;;14.73;5.80;;;15.80;67.00;;;;;;5013349;28;20205;-88
2021/06/13 08:54:54;;;;;;;16.97;5.80;;;15.90;66.30;;;;;;5013447;28;20177;-88
2021/06/13 08:57:20;;;;;;;11.10;5.03;;;15.90;65.70;;;;;;5081306;28;20306;-88
2021/06/13 08:59:47;;;;;;;11.40;5.27;;;16.00;65.70;;;;;;5081196;28;20177;-88
2021/06/13 09:02:14;;;;;;;17.38;5.55;;;16.20;64.80;;;;;;5013065;28;20182;-88
2021/06/13 09:04:39;;;;;;;16.73;5.70;;;16.40;63.80;;;;;;5081131;28;20186;-88
2021/06/13 09:07:21;;;;;;;18.27;5.65;;;16.50;64.90;;;;;;5080941;28;20235;-88
2021/06/13 09:09:47;;;;;;;12.73;5.40;;;16.70;64.00;;;;;;5080939;28;20197;-89
2021/06/13 09:12:13;;;;;;;11.57;5.07;;;16.50;61.00;;;;;;5081352;28;20232;-89
2021/06/13 09:14:43;;;;;;;10.68;5.05;;;16.60;62.10;;;;;;5012851;28;20699;-89
2021/06/13 09:17:28;;;;;;;13.82;5.10;;;17.00;63.20;;;;;;5012902;28;20161;-89
2021/06/13 09:20:20;;;;;;;9.80;4.70;;;17.10;61.80;;;;;;5012740;28;20160;-89
2021/06/13 09:23:05;;;;;;;13.07;4.72;;;17.10;60.90;;;;;;5080531;28;20685;-89
2021/06/13 09:25:31;;;;;;;12.20;4.82;;;17.00;60.40;;;;;;5080645;28;20183;-88
2021/06/13 09:28:08;;;;;;;10.60;5.10;;;17.10;61.80;;;;;;5080542;28;20209;-88
2021/06/13 09:30:36;;;;;;;15.02;4.93;;;17.30;61.00;;;;;;5080774;28;20629;-87
2021/06/13 09:33:13;;;;;;;13.45;4.97;;;17.50;59.20;;;;;;5080467;28;20188;-87
2021/06/13 09:35:40;;;;;;;14.40;4.68;;;17.50;60.40;;;;;;5080437;28;20189;-87
2021/06/13 09:38:08;;;;;;;14.75;5.00;;;17.40;61.10;;;;;;5011513;28;20710;-88
2021/06/13 09:40:34;;;;;;;14.77;4.75;;;17.60;61.00;;;;;;5080668;28;20234;-88
2021/06/13 09:43:10;;;;;;;12.35;4.90;;;17.50;60.30;;;;;;5080573;28;20178;-88
2021/06/13 09:45:37;;;;;;;13.00;5.03;;;17.40;59.40;;;;;;5012538;28;20195;-87
2021/06/13 09:48:03;;;;;;;9.75;4.65;;;17.40;58.60;;;;;;5080076;28;20231;-87
2021/06/13 09:51:07;;;;;;;11.57;5.30;;;17.20;59.70;;;;;;5080110;28;20178;-86
2021/06/13 09:53:39;;;;;;;12.52;5.28;;;17.20;60.50;;;;;;5012167;28;20165;-87
2021/06/13 09:56:21;;;;;;;12.73;5.35;;;17.20;60.10;;;;;;5080383;28;20207;-88
2021/06/13 09:59:20;;;;;;;10.95;5.50;;;17.30;60.40;;;;;;5012185;28;20618;-87
2021/06/13 10:01:49;;;;;;;12.45;5.70;;;17.50;60.00;;;;;;5035702;28;20658;-87
2021/06/13 10:04:18;;;;;;;10.82;4.97;;;17.30;59.60;;;;;;5079815;28;20212;-88
2021/06/13 10:06:48;;;;;;;14.70;5.32;;;17.50;60.00;;;;;;5079709;28;20202;-89
2021/06/13 10:09:15;;;;;;;16.80;6.60;;;17.70;58.90;;;;;;5011903;28;20248;-88
2021/06/13 10:11:42;;;;;;;13.13;4.97;;;17.70;58.50;;;;;;5080030;28;20180;-88
2021/06/13 10:14:12;;;;;;;11.05;4.57;;;17.40;59.10;;;;;;5079867;28;20170;-88
2021/06/13 10:16:50;;;;;;;11.43;4.95;;;17.30;60.10;;;;;;5012042;28;20645;-88
2021/06/13 10:19:21;;;;;;;12.05;5.35;;;17.70;60.10;;;;;;5011822;28;20228;-88
2021/06/13 10:21:48;;;;;;;15.60;6.35;;;17.80;59.40;;;;;;5011746;28;20621;-88
2021/06/13 10:24:22;;;;;;;17.45;5.32;;;17.80;59.50;;;;;;5079700;28;20173;-88
2021/06/13 10:26:51;;;;;;;15.52;5.63;;;18.20;60.00;;;;;;5011882;28;20182;-89
2021/06/13 10:29:19;;;;;;;12.32;5.03;;;18.30;55.70;;;;;;5079300;28;20292;-88
2021/06/13 10:31:47;;;;;;;10.77;4.63;;;18.80;57.00;;;;;;5011824;28;20177;-88
2021/06/13 10:34:14;;;;;;;12.55;5.63;;;19.00;57.10;;;;;;5079489;28;20177;-89
2021/06/13 10:36:41;;;;;;;11.05;4.85;;;19.10;58.90;;;;;;5079293;28;20589;-88
2021/06/13 10:39:08;;;;;;;10.30;5.07;;;18.70;54.90;;;;;;5079431;28;20281;-88
2021/06/13 10:41:35;;;;;;;13.68;4.60;;;19.00;55.90;;;;;;5011445;28;20665;-88
2021/06/13 10:44:03;;;;;;;14.25;4.90;;;18.90;55.00;;;;;;5079737;28;20177;-88
2021/06/13 10:46:31;;;;;;;10.95;4.72;;;19.00;55.10;;;;;;5079714;28;20577;-88
2021/06/13 10:48:59;;;;;;;13.90;5.30;;;19.30;56.10;;;;;;5011174;28;20200;-88
2021/06/13 10:51:35;;;;;;;10.20;4.43;;;19.50;57.10;;;;;;5011286;28;20173;-89
2021/06/13 10:54:46;;;;;;;11.07;4.90;;;19.40;54.10;;;;;;5079030;28;20178;-88
2021/06/13 10:57:12;;;;;;;11.82;5.57;;;18.80;55.60;;;;;;5019155;28;20189;-88
2021/06/13 10:59:42;;;;;;;10.25;4.03;;;19.20;55.30;;;;;;5079877;28;20538;-88
2021/06/13 11:02:13;;;;;;;15.80;4.60;;;19.50;54.80;;;;;;5079104;28;20246;-88
2021/06/13 11:05:01;;;;;;;12.02;5.05;;;18.90;54.40;;;;;;5078968;28;20173;-88
2021/06/13 11:07:36;;;;;;;12.00;5.03;;;18.90;55.60;;;;;;5078453;28;20232;-89
2021/06/13 11:10:11;;;;;;;10.20;4.50;;;19.00;57.10;;;;;;5078718;28;20302;-89
2021/06/13 11:13:01;;;;;;;12.25;4.55;;;18.80;55.70;;;;;;5078585;28;20169;-88
2021/06/13 11:15:35;;;;;;;11.13;4.38;;;19.00;55.40;;;;;;5078698;28;20214;-88
2021/06/13 11:18:02;;;;;;;15.25;4.95;;;19.20;55.10;;;;;;5062662;28;20289;-88
2021/06/13 11:20:29;;;;;;;13.80;5.05;;;19.70;54.60;;;;;;5078624;28;20177;-90
2021/06/13 11:22:56;;;;;;;8.73;4.38;;;19.80;53.90;;;;;;5078789;28;20179;-89
2021/06/13 11:25:25;;;;;;;12.43;4.35;;;19.60;52.90;;;;;;5079105;28;20202;-89
2021/06/13 11:28:21;;;;;;;13.07;4.45;;;19.70;53.50;;;;;;5078646;28;20225;-88
2021/06/13 11:30:57;;;;;;;11.55;5.32;;;19.90;53.50;;;;;;5079163;28;20611;-89
2021/06/13 11:33:34;;;;;;;9.25;4.40;;;19.60;54.00;;;;;;5011292;28;20173;-89
2021/06/13 11:36:04;;;;;;;11.88;4.07;;;20.20;52.30;;;;;;5011456;28;20170;-89
2021/06/13 11:38:31;;;;;;;14.10;4.78;;;20.20;50.90;;;;;;5079140;28;20204;-89
2021/06/13 11:41:03;;;;;;;6.68;3.83;;;19.50;51.90;;;;;;5011211;28;20652;-89
2021/06/13 11:43:44;;;;;;;11.10;3.97;;;19.20;52.80;;;;;;5011121;28;20177;-89
2021/06/13 11:46:12;;;;;;;8.20;3.88;;;19.40;54.30;;;;;;5011131;28;20236;-89
2021/06/13 11:48:59;;;;;;;11.20;3.97;;;19.50;53.10;;;;;;5011031;28;20649;-89
2021/06/13 11:51:24;;;;;;;9.45;4.28;;;19.90;54.50;;;;;;5012630;28;20224;-89
2021/06/13 11:54:00;;;;;;;15.70;5.18;;;19.80;53.70;;;;;;5013417;28;20794;-89
2021/06/13 11:56:34;;;;;;;10.55;3.65;;;19.90;53.60;;;;;;5014791;28;20157;-89
2021/06/13 11:59:01;;;;;;;6.70;4.00;;;20.20;53.30;;;;;;5012825;28;20438;-89
2021/06/13 12:01:27;;;;;;;8.85;3.65;;;20.10;52.00;;;;;;5015667;28;20252;-89
2021/06/13 12:03:54;;;;;;;9.02;3.95;;;19.80;54.30;;;;;;5017780;28;20664;-89
2021/06/13 12:06:21;;;;;;;13.98;4.22;;;20.20;54.70;;;;;;5084495;28;20173;-89
2021/06/13 12:08:48;;;;;;;9.55;3.90;;;20.40;53.40;;;;;;5016170;28;20189;-89
2021/06/13 12:11:32;;;;;;;7.32;3.17;;;20.60;53.40;;;;;;5016130;28;20227;-89
2021/06/13 12:14:15;;;;;;;8.75;4.03;;;20.50;53.50;;;;;;5015295;28;20844;-88
2021/06/13 12:16:41;;;;;;;12.95;4.05;;;20.40;51.90;;;;;;5086349;28;20169;-90
2021/06/13 12:19:07;;;;;;;12.40;4.55;;;20.60;52.60;;;;;;5016555;28;20824;-90
2021/06/13 12:21:33;;;;;;;10.73;3.60;;;20.60;53.80;;;;;;5017558;28;20178;-89
2021/06/13 12:29:39;;;;;;;7.60;4.00;;;20.60;51.50;;;;;;5017668;28;20585;-90
2021/06/13 12:32:13;;;;;;;10.98;4.30;;;20.80;52.60;;;;;;5015622;28;20410;-90
2021/06/13 12:34:39;;;;;;;9.50;3.88;;;20.40;54.30;;;;;;5016070;28;20173;-90
2021/06/13 12:37:06;;;;;;;6.97;4.00;;;20.80;52.50;;;;;;5015799;28;20679;-90
2021/06/13 12:39:32;;;;;;;9.68;3.72;;;20.70;54.60;;;;;;5084816;28;20186;-90
2021/06/13 12:42:12;;;;;;;10.35;3.85;;;21.00;54.00;;;;;;5016005;28;20174;-91
2021/06/13 12:44:39;;;;;;;7.40;3.67;;;21.20;50.50;;;;;;5016041;28;20614;-90
2021/06/13 12:47:07;;;;;;;7.72;3.78;;;20.60;51.90;;;;;;5016227;28;20206;-89
2021/06/13 12:49:44;;;;;;;14.10;3.97;;;20.80;52.10;;;;;;5015987;28;20176;-89
2021/06/13 12:52:15;;;;;;;9.90;4.45;;;20.80;50.90;;;;;;5014931;28;20904;-89
2021/06/13 12:54:42;;;;;;;11.27;4.18;;;20.60;51.20;;;;;;5015995;28;20177;-89